createdAt,value
2022-10-07T00:04:24.744Z,84.14
2022-10-07T00:09:30.800Z,84.55
2022-10-07T00:14:36.664Z,84.34
2022-10-07T00:19:42.952Z,84.57
2022-10-07T00:25:14.565Z,84.71
2022-10-07T00:30:20.744Z,84.86
2022-10-07T00:35:26.532Z,84.95
2022-10-07T00:40:33.025Z,85.11
2022-10-07T00:45:39.118Z,85.26
2022-10-07T00:50:45.450Z,85.28
2022-10-07T00:55:51.573Z,85.30
2022-10-07T01:00:58.188Z,85.24
2022-10-07T01:06:04.530Z,85.50
2022-10-07T01:11:26.779Z,85.47
2022-10-07T01:16:39.581Z,85.60
2022-10-07T01:21:53.694Z,86.03
2022-10-07T01:27:04.181Z,85.97
2022-10-07T01:32:18.038Z,85.94
2022-10-07T01:37:28.650Z,86.00
2022-10-07T01:42:35.289Z,85.97
2022-10-07T01:47:42.383Z,86.15
2022-10-07T01:53:15.432Z,86.11
2022-10-07T01:58:33.189Z,86.14
2022-10-07T02:04:04.038Z,86.45
2022-10-07T02:09:19.276Z,86.35
2022-10-07T02:14:31.326Z,86.42
2022-10-07T02:19:43.661Z,86.56
2022-10-07T02:24:55.424Z,86.79
2022-10-07T02:30:07.963Z,86.63
2022-10-07T02:35:21.045Z,86.60
2022-10-07T02:40:35.666Z,86.46
2022-10-07T02:45:46.152Z,86.60
2022-10-07T02:50:58.351Z,86.50
2022-10-07T02:56:05.640Z,86.60
2022-10-07T03:01:14.105Z,86.75
2022-10-07T03:06:23.121Z,86.76
2022-10-07T03:11:29.840Z,86.83
2022-10-07T03:16:35.882Z,86.95
2022-10-07T03:21:41.875Z,87.03
2022-10-07T03:26:48.175Z,87.12
2022-10-07T03:31:55.408Z,87.35
2022-10-07T03:37:02.406Z,87.22
2022-10-07T03:42:08.923Z,87.33
2022-10-07T03:47:16.968Z,87.48
2022-10-07T03:52:24.068Z,87.38
2022-10-07T03:57:50.051Z,87.37
2022-10-07T04:02:56.468Z,87.58
2022-10-07T04:08:04.961Z,87.58
2022-10-07T04:13:11.629Z,87.69
2022-10-07T04:18:17.505Z,87.63
2022-10-07T04:23:23.858Z,87.75
2022-10-07T04:28:29.868Z,87.77
2022-10-07T04:33:42.290Z,87.75
2022-10-07T04:38:51.717Z,87.85
2022-10-07T04:44:01.460Z,87.88
2022-10-07T04:49:10.638Z,87.96
2022-10-07T04:54:16.852Z,88.01
2022-10-07T04:59:29.777Z,88.47
2022-10-07T05:04:37.187Z,88.63
2022-10-07T05:09:43.061Z,88.54
2022-10-07T05:14:49.253Z,88.58
2022-10-07T05:19:56.013Z,88.45
2022-10-07T05:25:02.217Z,88.62
2022-10-07T05:30:11.537Z,89.18
2022-10-07T05:35:17.680Z,90.22
2022-10-07T05:40:23.760Z,90.40
2022-10-07T05:45:31.463Z,90.98
2022-10-07T05:50:39.852Z,91.23
2022-10-07T05:55:46.676Z,90.98
2022-10-07T06:00:55.877Z,90.14
2022-10-07T06:06:02.553Z,88.40
2022-10-07T06:11:29.732Z,87.40
2022-10-07T06:16:35.970Z,86.73
2022-10-07T06:21:42.160Z,84.63
2022-10-07T06:26:48.113Z,79.73
2022-10-07T06:31:55.221Z,72.46
2022-10-07T06:37:01.217Z,64.93
2022-10-07T06:42:07.639Z,58.62
2022-10-07T06:47:32.758Z,53.38
2022-10-07T06:52:42.646Z,51.44
2022-10-07T06:57:50.066Z,48.17
2022-10-07T07:03:01.402Z,46.19
2022-10-07T07:08:08.067Z,43.68
2022-10-07T07:13:15.372Z,41.32
2022-10-07T07:18:21.325Z,39.61
2022-10-07T07:23:28.411Z,38.34
2022-10-07T07:28:35.044Z,36.82
2022-10-07T07:33:42.393Z,35.89
2022-10-07T07:38:53.163Z,34.37
2022-10-07T07:44:02.289Z,33.21
2022-10-07T07:49:10.517Z,32.36
2022-10-07T07:54:17.267Z,30.76
2022-10-07T07:59:25.417Z,30.45
2022-10-07T08:04:32.745Z,29.99
2022-10-07T08:09:39.318Z,29.36
2022-10-07T08:14:46.151Z,29.02
2022-10-07T08:19:54.543Z,28.60
2022-10-07T08:25:00.864Z,28.40
2022-10-07T08:30:10.080Z,28.29
2022-10-07T08:35:16.161Z,27.93
2022-10-07T08:40:22.266Z,26.99
2022-10-07T08:45:33.203Z,27.07
2022-10-07T08:50:49.335Z,26.42
2022-10-07T08:56:01.657Z,27.06
2022-10-07T09:01:19.254Z,26.50
2022-10-07T09:06:31.456Z,26.77
2022-10-07T09:11:40.823Z,25.57
2022-10-07T09:16:49.828Z,25.84
2022-10-07T09:22:00.297Z,26.63
2022-10-07T09:27:16.036Z,26.57
2022-10-07T09:32:23.623Z,26.12
2022-10-07T09:37:29.937Z,26.72
2022-10-07T09:42:39.814Z,26.48
2022-10-07T09:47:51.305Z,26.05
2022-10-07T09:52:58.153Z,26.67
2022-10-07T09:58:06.738Z,26.33
2022-10-07T10:03:13.493Z,26.94
2022-10-07T10:08:25.558Z,27.98
2022-10-07T10:13:35.050Z,28.32
2022-10-07T10:18:53.127Z,28.22
2022-10-07T10:24:01.291Z,27.10
2022-10-07T10:29:20.238Z,26.60
2022-10-07T10:34:32.070Z,26.81
2022-10-07T10:39:48.962Z,27.47
2022-10-07T10:45:10.812Z,27.29
2022-10-07T10:50:23.654Z,29.20
2022-10-07T10:55:42.240Z,29.08
2022-10-07T11:00:59.834Z,30.17
2022-10-07T11:06:11.079Z,31.02
2022-10-07T11:11:20.107Z,31.17
2022-10-07T11:16:31.823Z,32.04
2022-10-07T11:21:41.466Z,32.07
2022-10-07T11:26:52.613Z,31.49
2022-10-07T11:32:05.261Z,31.76
2022-10-07T11:37:20.375Z,32.62
2022-10-07T11:42:28.844Z,32.22
2022-10-07T11:47:39.222Z,32.48
2022-10-07T11:52:47.808Z,32.53
2022-10-07T11:57:56.685Z,33.18
2022-10-07T12:03:36.566Z,33.16
2022-10-07T12:08:44.137Z,33.45
2022-10-07T12:13:51.860Z,33.88
2022-10-07T12:19:22.340Z,34.56
2022-10-07T12:24:30.487Z,34.38
2022-10-07T12:30:02.726Z,34.43
2022-10-07T12:35:54.601Z,35.30
2022-10-07T12:41:23.570Z,35.19
2022-10-07T12:46:34.444Z,35.27
2022-10-07T12:51:40.973Z,35.37
2022-10-07T12:56:48.282Z,36.65
2022-10-07T13:02:25.006Z,36.71
2022-10-07T13:07:58.080Z,36.78
2022-10-07T13:13:08.742Z,36.40
2022-10-07T13:18:17.006Z,36.57
2022-10-07T13:23:27.400Z,36.80
2022-10-07T13:28:45.991Z,37.41
2022-10-07T13:33:54.074Z,36.98
2022-10-07T13:39:19.661Z,36.97
2022-10-07T13:44:28.559Z,37.16
2022-10-07T13:49:40.321Z,38.10
2022-10-07T13:54:52.027Z,38.66
2022-10-07T13:59:59.842Z,39.61
2022-10-07T14:05:19.050Z,39.39
2022-10-07T14:10:28.096Z,39.81
2022-10-07T14:15:40.108Z,40.25
2022-10-07T14:20:53.815Z,41.00
2022-10-07T14:26:00.884Z,41.20
2022-10-07T14:31:39.840Z,41.89
2022-10-07T14:37:02.742Z,42.33
2022-10-07T14:42:13.852Z,42.88
2022-10-07T14:47:21.461Z,43.69
2022-10-07T14:52:29.299Z,44.49
2022-10-07T14:57:35.470Z,44.97
2022-10-07T15:02:41.242Z,45.86
2022-10-07T15:07:47.123Z,46.51
2022-10-07T15:12:53.676Z,47.19
2022-10-07T15:17:59.477Z,47.89
2022-10-07T15:23:05.556Z,48.57
2022-10-07T15:28:11.405Z,49.36
2022-10-07T15:33:42.750Z,50.22
2022-10-07T15:39:02.523Z,50.90
2022-10-07T15:44:13.362Z,52.04
2022-10-07T15:49:19.262Z,52.92
2022-10-07T15:54:25.865Z,53.98
2022-10-07T15:59:32.021Z,54.99
2022-10-07T16:04:39.613Z,56.06
2022-10-07T16:09:45.423Z,57.46
2022-10-07T16:14:52.162Z,58.53
2022-10-07T16:19:57.950Z,59.59
2022-10-07T16:25:03.868Z,60.75
2022-10-07T16:30:30.312Z,61.73
2022-10-07T16:35:36.175Z,62.76
2022-10-07T16:40:50.715Z,63.72
2022-10-07T16:45:59.957Z,64.55
2022-10-07T16:51:08.345Z,65.64
2022-10-07T16:56:15.679Z,66.23
2022-10-07T17:01:21.964Z,66.73
2022-10-07T17:06:30.374Z,66.98
2022-10-07T17:11:37.841Z,67.07
2022-10-07T17:16:45.638Z,67.54
2022-10-07T17:21:52.971Z,68.08
2022-10-07T17:26:58.894Z,68.19
2022-10-07T17:32:05.198Z,68.42
2022-10-07T17:37:12.252Z,68.57
2022-10-07T17:42:18.690Z,68.78
2022-10-07T17:47:34.470Z,68.94
2022-10-07T17:52:41.679Z,69.02
2022-10-07T17:57:48.014Z,69.10
2022-10-07T18:02:54.078Z,69.31
2022-10-07T18:07:59.858Z,69.59
2022-10-07T18:13:24.506Z,69.78
2022-10-07T18:18:31.134Z,69.97
2022-10-07T18:23:38.322Z,69.87
2022-10-07T18:28:46.242Z,69.98
2022-10-07T18:33:52.407Z,70.14
2022-10-07T18:38:58.426Z,70.59
2022-10-07T18:44:05.144Z,71.06
2022-10-07T18:49:13.745Z,71.23
2022-10-07T18:54:20.201Z,71.37
2022-10-07T18:59:26.154Z,71.59
2022-10-07T19:04:32.201Z,71.83
2022-10-07T19:09:38.161Z,72.18
2022-10-07T19:14:44.096Z,72.65
2022-10-07T19:19:50.405Z,72.96
2022-10-07T19:28:03.328Z,72.94
2022-10-07T19:33:10.972Z,73.14
2022-10-07T19:38:16.707Z,73.50
2022-10-07T19:43:22.379Z,73.53
2022-10-07T19:48:29.988Z,73.39
2022-10-07T19:53:36.750Z,73.56
2022-10-07T19:58:47.815Z,73.68
2022-10-07T20:03:57.345Z,74.08
2022-10-07T20:09:03.970Z,74.13
2022-10-07T20:14:10.190Z,74.36
2022-10-07T20:19:18.816Z,74.54
2022-10-07T20:24:26.246Z,74.71
2022-10-07T20:29:32.751Z,74.92
2022-10-07T20:34:38.782Z,75.30
2022-10-07T20:40:03.558Z,75.53
2022-10-07T20:45:10.118Z,75.51
2022-10-07T20:50:16.048Z,75.81
2022-10-07T20:55:21.992Z,76.00
2022-10-07T21:00:27.760Z,76.37
2022-10-07T21:05:33.559Z,76.41
2022-10-07T21:10:39.266Z,76.81
2022-10-07T21:15:45.266Z,76.89
2022-10-07T21:20:57.027Z,77.22
2022-10-07T21:26:05.372Z,77.56
2022-10-07T21:31:17.304Z,77.70
2022-10-07T21:36:25.573Z,78.03
2022-10-07T21:41:37.902Z,78.37
2022-10-07T21:46:45.626Z,78.47
2022-10-07T21:51:52.465Z,78.59
2022-10-07T21:56:58.414Z,78.79
2022-10-07T22:02:05.009Z,79.36
2022-10-07T22:07:50.014Z,79.47
2022-10-07T22:12:56.358Z,79.44
2022-10-07T22:18:06.786Z,79.45
2022-10-07T22:23:36.009Z,79.65
2022-10-07T22:28:41.976Z,79.92
2022-10-07T22:33:52.833Z,79.82
2022-10-07T22:38:59.432Z,79.89
2022-10-07T22:44:05.362Z,80.45
2022-10-07T22:49:11.164Z,80.78
2022-10-07T22:54:17.045Z,81.03
2022-10-07T22:59:22.894Z,81.06
2022-10-07T23:04:28.890Z,81.35
2022-10-07T23:09:34.653Z,81.38
2022-10-07T23:14:41.207Z,81.69
2022-10-07T23:19:47.022Z,81.93
2022-10-07T23:24:52.929Z,82.10
2022-10-07T23:29:58.743Z,82.44
2022-10-07T23:35:05.055Z,82.68
2022-10-07T23:40:12.185Z,82.53
2022-10-07T23:45:17.975Z,82.52
2022-10-07T23:50:23.890Z,82.81
2022-10-07T23:55:29.742Z,82.72
